Time;durP1;ratioP1;P1;durP2;ratioP2;P2;SDS_P1;SDS_P2;PMS_P1;PMS_P2;Temp;Humidity;BMP_temperature;BMP_pressure;BME280_temperature;BME280_humidity;BME280_pressure;Samples;Min_cycle;Max_cycle;Signal;HPM_P1;HPM_P2
2023/09/06 00:02:06;;;;;;;;;;;;;;;30.27;27.96;98936.00;5095258;28;19920;-90
2023/09/06 00:04:33;;;;;;;;;;;;;;;30.19;27.84;98936.72;5087908;28;20371;-89
2023/09/06 00:06:59;;;;;;;;;;;;;;;30.16;28.02;98940.44;5101984;28;19926;-89
2023/09/06 00:09:25;;;;;;;;;;;;;;;30.11;28.23;98941.03;5094099;28;19943;-89
2023/09/06 00:11:51;;;;;;;;;;;;;;;30.10;27.97;98948.75;5086138;28;19933;-89
2023/09/06 00:14:19;;;;;;;;;;;;;;;30.18;27.78;98949.31;5076532;28;20083;-89
2023/09/06 00:16:48;;;;;;;;;;;;;;;30.10;27.81;98948.75;5090975;28;19926;-89
2023/09/06 00:19:17;;;;;;;;;;;;;;;30.14;27.70;98948.59;5090983;28;19955;-89
2023/09/06 00:21:43;;;;;;;;;;;;;;;30.14;27.78;98946.56;5090385;28;19920;-89
2023/09/06 00:24:10;;;;;;;;;;;;;;;30.21;26.99;98952.00;5092811;28;20340;-89
2023/09/06 00:26:36;;;;;;;;;;;;;;;30.08;27.21;98951.25;5091732;28;19974;-89
2023/09/06 00:29:04;;;;;;;;;;;;;;;30.04;26.99;98954.19;5091556;28;19920;-89
2023/09/06 00:31:31;;;;;;;;;;;;;;;29.94;26.97;98952.47;5091037;28;19924;-89
2023/09/06 00:33:57;;;;;;;;;;;;;;;29.69;27.67;98951.63;5091977;28;19920;-89
2023/09/06 00:36:23;;;;;;;;;;;;;;;29.28;27.85;98950.47;5091100;28;19927;-89
2023/09/06 00:38:49;;;;;;;;;;;;;;;29.34;28.16;98950.69;5091432;28;19935;-89
2023/09/06 00:41:15;;;;;;;;;;;;;;;29.38;28.01;98943.66;5088216;28;19924;-89
2023/09/06 00:43:41;;;;;;;;;;;;;;;29.49;28.24;98951.06;5091408;28;19920;-89
2023/09/06 00:46:07;;;;;;;;;;;;;;;29.50;28.45;98949.81;5092448;28;20007;-89
2023/09/06 00:48:36;;;;;;;;;;;;;;;29.63;27.94;98944.97;5091678;28;19970;-89
2023/09/06 00:51:04;;;;;;;;;;;;;;;29.71;27.79;98947.09;5089208;28;20016;-88
2023/09/06 00:53:30;;;;;;;;;;;;;;;29.64;27.77;98944.50;5087060;28;19920;-89
2023/09/06 00:55:59;;;;;;;;;;;;;;;29.75;27.75;98944.19;5091669;28;19935;-88
2023/09/06 00:58:27;;;;;;;;;;;;;;;29.57;27.55;98946.78;5090721;28;19923;-88
2023/09/06 01:00:53;;;;;;;;;;;;;;;29.59;27.71;98945.09;5089476;28;20387;-89
2023/09/06 01:03:19;;;;;;;;;;;;;;;29.64;27.83;98944.50;5089497;28;19935;-88
2023/09/06 01:05:56;;;;;;;;;;;;;;;29.75;27.25;98950.66;5088688;28;19916;-89
2023/09/06 01:08:27;;;;;;;;;;;;;;;29.75;26.94;98949.84;5088236;28;20376;-88
2023/09/06 01:10:53;;;;;;;;;;;;;;;29.70;27.04;98956.88;5089845;28;19960;-89
2023/09/06 01:13:20;;;;;;;;;;;;;;;29.28;26.88;98952.50;5089248;28;19935;-89
2023/09/06 01:15:46;;;;;;;;;;;;;;;29.11;27.60;98962.25;5097082;28;19922;-89
2023/09/06 01:18:13;;;;;;;;;;;;;;;29.26;27.12;98952.94;5093372;28;19920;-89
2023/09/06 01:20:52;;;;;;;;;;;;;;;29.27;27.48;98957.34;5093350;28;19927;-89
2023/09/06 01:23:37;;;;;;;;;;;;;;;29.45;27.15;98956.03;5092591;28;20387;-89
2023/09/06 01:26:03;;;;;;;;;;;;;;;29.62;27.08;98961.16;5089991;28;19963;-89
2023/09/06 01:28:30;;;;;;;;;;;;;;;29.73;26.65;98958.81;5078704;28;19969;-89
2023/09/06 01:30:56;;;;;;;;;;;;;;;29.65;26.26;98957.41;5097232;28;19962;-89
2023/09/06 01:33:23;;;;;;;;;;;;;;;29.82;26.11;98960.97;5105173;28;19920;-88
2023/09/06 01:35:49;;;;;;;;;;;;;;;29.79;26.07;98950.56;5097233;28;20027;-89
2023/09/06 01:38:15;;;;;;;;;;;;;;;29.35;26.66;98949.44;5097028;28;20367;-89
2023/09/06 01:40:44;;;;;;;;;;;;;;;29.02;26.83;98948.75;5097329;28;19924;-89
2023/09/06 01:43:10;;;;;;;;;;;;;;;29.05;27.16;98949.91;5092867;28;19916;-89
2023/09/06 01:45:37;;;;;;;;;;;;;;;29.13;27.16;98943.59;5084471;28;20264;-89
2023/09/06 01:48:03;;;;;;;;;;;;;;;29.09;27.33;98951.38;5095451;28;19916;-89
2023/09/06 01:50:29;;;;;;;;;;;;;;;29.30;27.26;98950.00;5089929;28;19927;-89
2023/09/06 01:52:55;;;;;;;;;;;;;;;29.53;26.91;98949.69;5079354;28;19928;-89
2023/09/06 01:55:21;;;;;;;;;;;;;;;29.60;26.64;98946.66;5095930;28;20272;-89
2023/09/06 01:57:47;;;;;;;;;;;;;;;29.58;26.14;98951.19;5096148;28;19931;-89
2023/09/06 02:00:25;;;;;;;;;;;;;;;29.45;26.39;98951.19;5095612;28;19938;-89
2023/09/06 02:02:51;;;;;;;;;;;;;;;29.46;27.01;98949.91;5094834;28;19927;-90
2023/09/06 02:05:17;;;;;;;;;;;;;;;29.51;26.38;98952.19;5096491;28;19978;-89
2023/09/06 02:07:46;;;;;;;;;;;;;;;29.57;26.35;98946.78;5095694;28;19951;-89
2023/09/06 02:10:12;;;;;;;;;;;;;;;29.68;26.37;98942.38;5095861;28;20383;-89
2023/09/06 02:12:38;;;;;;;;;;;;;;;29.60;26.12;98937.38;5105837;28;19972;-89
2023/09/06 02:15:05;;;;;;;;;;;;;;;29.37;26.42;98944.94;5077877;28;19928;-90
2023/09/06 02:17:32;;;;;;;;;;;;;;;29.27;27.08;98942.41;5076861;28;19916;-89
2023/09/06 02:20:06;;;;;;;;;;;;;;;29.06;27.33;98940.97;5095519;28;20387;-89
2023/09/06 02:22:34;;;;;;;;;;;;;;;29.22;26.88;98938.09;5095701;28;20299;-89
2023/09/06 02:25:01;;;;;;;;;;;;;;;29.36;26.73;98934.84;5095436;28;20291;-89
2023/09/06 02:27:27;;;;;;;;;;;;;;;29.47;26.64;98936.56;5095510;28;19927;-89
2023/09/06 02:29:53;;;;;;;;;;;;;;;29.58;26.25;98931.38;5095588;28;19920;-89
2023/09/06 02:32:19;;;;;;;;;;;;;;;29.54;26.54;98922.19;5095924;28;20299;-89
2023/09/06 02:34:45;;;;;;;;;;;;;;;29.42;26.51;98930.22;5093418;28;19927;-89
2023/09/06 02:37:11;;;;;;;;;;;;;;;29.53;26.06;98937.59;5094917;28;19915;-89
2023/09/06 02:39:38;;;;;;;;;;;;;;;29.48;26.50;98935.34;5094013;28;19943;-89
2023/09/06 02:42:04;;;;;;;;;;;;;;;29.45;26.15;98936.22;5090497;28;19931;-89
2023/09/06 02:44:30;;;;;;;;;;;;;;;29.46;26.53;98940.63;5090318;28;20420;-89
2023/09/06 02:46:56;;;;;;;;;;;;;;;29.58;26.44;98937.81;5090265;28;19951;-89
2023/09/06 02:49:26;;;;;;;;;;;;;;;29.48;26.35;98932.50;5095377;28;20029;-89
2023/09/06 02:51:52;;;;;;;;;;;;;;;29.27;26.79;98936.75;5091572;28;19920;-89
2023/09/06 02:54:18;;;;;;;;;;;;;;;29.23;26.50;98931.22;5094725;28;19926;-89
2023/09/06 02:56:45;;;;;;;;;;;;;;;29.28;26.45;98932.69;5095210;28;20303;-89
2023/09/06 02:59:15;;;;;;;;;;;;;;;29.40;26.92;98941.22;5094709;28;20324;-89
2023/09/06 03:01:45;;;;;;;;;;;;;;;29.14;26.90;98936.69;5086849;28;19935;-89
2023/09/06 03:04:13;;;;;;;;;;;;;;;29.17;26.75;98940.66;5098920;28;19920;-89
2023/09/06 03:06:39;;;;;;;;;;;;;;;29.21;26.32;98935.72;5093525;28;19920;-89
2023/09/06 03:09:06;;;;;;;;;;;;;;;29.24;26.23;98932.00;5086790;28;19920;-89
2023/09/06 03:11:32;;;;;;;;;;;;;;;29.20;26.42;98936.94;5095030;28;19967;-89
2023/09/06 03:13:58;;;;;;;;;;;;;;;29.32;26.54;98933.38;5072957;28;20396;-89
2023/09/06 03:16:24;;;;;;;;;;;;;;;29.37;26.42;98935.66;5092374;28;19920;-89
2023/09/06 03:18:52;;;;;;;;;;;;;;;29.45;25.87;98930.56;5094712;28;20375;-89
2023/09/06 03:21:18;;;;;;;;;;;;;;;29.45;25.69;98925.72;5094981;28;19920;-89
2023/09/06 03:23:45;;;;;;;;;;;;;;;29.43;25.28;98926.13;5083664;28;19916;-89
2023/09/06 03:26:12;;;;;;;;;;;;;;;29.46;25.39;98920.81;5074524;28;19920;-89
2023/09/06 03:28:41;;;;;;;;;;;;;;;29.04;25.63;98922.84;5074661;28;20450;-89
2023/09/06 03:31:12;;;;;;;;;;;;;;;28.57;25.98;98934.63;5060641;28;19928;-89
2023/09/06 03:33:41;;;;;;;;;;;;;;;28.56;25.92;98930.22;5071807;28;19932;-89
2023/09/06 03:36:09;;;;;;;;;;;;;;;28.75;25.97;98928.53;5064347;28;19928;-88
2023/09/06 03:38:36;;;;;;;;;;;;;;;28.65;26.04;98924.75;5068352;28;19927;-89
2023/09/06 03:41:07;;;;;;;;;;;;;;;28.86;25.92;98926.19;5068797;28;19974;-89
2023/09/06 03:43:33;;;;;;;;;;;;;;;28.90;26.31;98932.53;5070299;28;19935;-89
2023/09/06 03:46:04;;;;;;;;;;;;;;;28.89;26.57;98928.13;5073694;28;20310;-89
2023/09/06 03:48:30;;;;;;;;;;;;;;;29.05;25.90;98925.25;5064016;28;19928;-89
2023/09/06 03:50:59;;;;;;;;;;;;;;;29.12;25.91;98922.22;5063239;28;19921;-89
2023/09/06 03:53:26;;;;;;;;;;;;;;;29.19;25.55;98935.38;5069546;28;19920;-89
2023/09/06 03:55:52;;;;;;;;;;;;;;;29.24;25.55;98929.94;5074029;28;20007;-89
2023/09/06 03:58:18;;;;;;;;;;;;;;;29.34;26.11;98931.69;5061171;28;19924;-89
2023/09/06 04:00:44;;;;;;;;;;;;;;;29.35;25.28;98938.94;5058549;28;19920;-89
2023/09/06 04:03:11;;;;;;;;;;;;;;;29.19;25.69;98932.56;5068242;28;20342;-89
2023/09/06 04:05:37;;;;;;;;;;;;;;;28.89;25.63;98936.63;5060534;28;19921;-89
2023/09/06 04:08:03;;;;;;;;;;;;;;;28.87;26.03;98936.25;5054122;28;19970;-89
2023/09/06 04:10:36;;;;;;;;;;;;;;;28.95;26.11;98951.00;5064427;28;19921;-88
2023/09/06 04:13:03;;;;;;;;;;;;;;;28.86;26.31;98942.38;5073938;28;19920;-89
2023/09/06 04:15:30;;;;;;;;;;;;;;;28.80;26.29;98944.94;5073614;28;20319;-89
2023/09/06 04:17:57;;;;;;;;;;;;;;;29.01;26.25;98932.25;5052816;28;20327;-89
2023/09/06 04:20:26;;;;;;;;;;;;;;;29.15;25.83;98937.50;5069719;28;19956;-89
2023/09/06 04:22:54;;;;;;;;;;;;;;;29.29;25.70;98931.47;5093954;28;19920;-89
2023/09/06 04:25:22;;;;;;;;;;;;;;;29.25;26.07;98933.56;5093781;28;20283;-89
2023/09/06 04:27:49;;;;;;;;;;;;;;;29.26;26.08;98935.97;5094628;28;19927;-89
2023/09/06 04:30:16;;;;;;;;;;;;;;;29.33;26.97;98935.75;5095538;28;19935;-88
2023/09/06 04:32:44;;;;;;;;;;;;;;;29.23;26.49;98936.06;5091583;28;19916;-88
2023/09/06 04:35:10;;;;;;;;;;;;;;;29.21;26.74;98942.19;5086866;28;19931;-88
2023/09/06 04:37:38;;;;;;;;;;;;;;;29.37;26.71;98938.47;5090701;28;19920;-89
2023/09/06 04:40:11;;;;;;;;;;;;;;;29.47;26.67;98937.38;5091024;28;19924;-88
2023/09/06 04:42:39;;;;;;;;;;;;;;;29.78;27.03;98948.97;5075227;28;20017;-89
2023/09/06 04:45:09;;;;;;;;;;;;;;;30.22;25.97;98959.28;5087524;28;20297;-90
2023/09/06 04:47:36;;;;;;;;;;;;;;;30.52;25.36;98949.38;5087483;28;19978;-89
2023/09/06 04:50:03;;;;;;;;;;;;;;;30.65;25.32;98962.25;5086590;28;19927;-87
2023/09/06 04:52:29;;;;;;;;;;;;;;;30.53;25.71;98953.78;5068675;28;19927;-88
2023/09/06 04:54:56;;;;;;;;;;;;;;;30.75;25.38;98960.31;5091177;28;19932;-85
2023/09/06 04:57:25;;;;;;;;;;;;;;;31.03;25.88;98956.47;5090170;28;19916;-86
2023/09/06 04:59:52;;;;;;;;;;;;;;;31.12;24.94;98965.06;5069757;28;20316;-85
2023/09/06 05:02:18;;;;;;;;;;;;;;;31.02;25.82;98960.56;5092970;28;20398;-86
2023/09/06 05:04:44;;;;;;;;;;;;;;;31.16;25.97;98957.19;5069492;28;19920;-88
2023/09/06 05:07:10;;;;;;;;;;;;;;;31.05;25.54;98956.81;5092619;28;19935;-87
2023/09/06 05:09:36;;;;;;;;;;;;;;;31.02;25.68;98956.91;5092158;28;19920;-85
2023/09/06 05:12:03;;;;;;;;;;;;;;;30.91;25.97;98963.00;5091272;28;19947;-85
2023/09/06 05:14:29;;;;;;;;;;;;;;;30.75;26.46;98961.09;5093325;28;19928;-85
2023/09/06 05:16:55;;;;;;;;;;;;;;;30.70;26.56;98966.56;5091137;28;20296;-85
2023/09/06 05:19:27;;;;;;;;;;;;;;;30.67;26.97;98965.41;5091601;28;19928;-86
2023/09/06 05:21:54;;;;;;;;;;;;;;;30.52;27.17;98970.00;5094103;28;19920;-84
2023/09/06 05:24:20;;;;;;;;;;;;;;;30.36;27.73;98970.16;5102666;28;19920;-85
2023/09/06 05:26:46;;;;;;;;;;;;;;;30.36;28.46;98983.53;5092240;28;20387;-83
2023/09/06 05:29:14;;;;;;;;;;;;;;;30.40;28.40;98987.03;5097962;28;20441;-84
2023/09/06 05:31:41;;;;;;;;;;;;;;;30.61;28.64;98984.28;5098065;28;19967;-84
2023/09/06 05:34:07;;;;;;;;;;;;;;;30.81;28.44;98983.22;5096638;28;19919;-83
2023/09/06 05:36:33;;;;;;;;;;;;;;;30.88;28.56;98982.97;5094538;28;20041;-83
2023/09/06 05:38:59;;;;;;;;;;;;;;;30.94;28.82;98990.44;5076321;28;19977;-85
2023/09/06 05:41:25;;;;;;;;;;;;;;;31.18;29.20;98988.75;5094068;28;20324;-85
2023/09/06 05:43:51;;;;;;;;;;;;;;;31.44;28.86;98983.75;5097085;28;19928;-84
2023/09/06 05:46:17;;;;;;;;;;;;;;;31.58;28.64;98991.72;5098533;28;19916;-84
2023/09/06 05:48:43;;;;;;;;;;;;;;;31.35;29.33;98980.81;5100869;28;19926;-85
2023/09/06 05:51:09;;;;;;;;;;;;;;;31.45;29.25;98993.06;5096210;28;20022;-85
2023/09/06 05:53:35;;;;;;;;;;;;;;;31.15;28.85;98980.38;5097756;28;19972;-84
2023/09/06 05:56:01;;;;;;;;;;;;;;;31.16;29.47;98990.44;5098914;28;19988;-86
2023/09/06 05:58:27;;;;;;;;;;;;;;;30.94;29.79;98987.59;5090441;28;19955;-85
2023/09/06 06:00:55;;;;;;;;;;;;;;;31.45;29.47;98984.53;5086342;28;19924;-85
2023/09/06 06:03:23;;;;;;;;;;;;;;;31.55;29.05;98992.69;5090603;28;19924;-86
2023/09/06 06:05:51;;;;;;;;;;;;;;;31.48;29.53;98994.97;5067792;28;19978;-85
2023/09/06 06:08:17;;;;;;;;;;;;;;;31.01;29.26;98995.06;5090309;28;19916;-86
2023/09/06 06:10:43;;;;;;;;;;;;;;;30.53;30.23;99002.75;5082237;28;19924;-86
2023/09/06 06:13:11;;;;;;;;;;;;;;;30.72;30.95;98998.88;5087691;28;19927;-85
2023/09/06 06:15:37;;;;;;;;;;;;;;;30.57;30.63;99000.59;5091161;28;19923;-85
2023/09/06 06:18:05;;;;;;;;;;;;;;;31.15;30.58;99001.03;5093027;28;20299;-86
2023/09/06 06:20:31;;;;;;;;;;;;;;;32.00;29.23;98987.25;5092298;28;19951;-86
2023/09/06 06:22:58;;;;;;;;;;;;;;;31.69;28.59;98994.16;5090089;28;19936;-87
2023/09/06 06:25:24;;;;;;;;;;;;;;;31.63;30.68;99005.31;5089252;28;19924;-85
2023/09/06 06:27:54;;;;;;;;;;;;;;;30.77;30.04;99000.34;5092290;28;19923;-84
2023/09/06 06:30:20;;;;;;;;;;;;;;;31.02;30.46;99002.31;5092883;28;19928;-88
2023/09/06 06:32:46;;;;;;;;;;;;;;;31.49;30.47;99002.22;5084426;28;19916;-88
2023/09/06 06:35:12;;;;;;;;;;;;;;;31.56;29.53;98999.13;5085849;28;20011;-88
2023/09/06 06:37:38;;;;;;;;;;;;;;;32.20;29.91;98994.59;5083473;28;19920;-86
2023/09/06 06:40:05;;;;;;;;;;;;;;;32.44;28.87;98995.63;5087130;28;19935;-86
2023/09/06 06:42:31;;;;;;;;;;;;;;;32.17;29.73;98989.84;5088462;28;19930;-87
2023/09/06 06:44:57;;;;;;;;;;;;;;;31.89;29.06;98991.75;5091856;28;19993;-87
2023/09/06 06:47:23;;;;;;;;;;;;;;;31.76;28.87;98991.06;5090515;28;20405;-89
2023/09/06 06:49:50;;;;;;;;;;;;;;;32.33;29.53;98986.72;5092080;28;19916;-86
2023/09/06 06:52:16;;;;;;;;;;;;;;;32.07;29.09;98991.84;5094196;28;19927;-86
2023/09/06 06:54:42;;;;;;;;;;;;;;;32.30;30.87;98991.31;5090539;28;19920;-86
2023/09/06 06:57:08;;;;;;;;;;;;;;;32.63;29.33;98992.38;5093026;28;19924;-87
2023/09/06 06:59:34;;;;;;;;;;;;;;;33.31;28.63;98987.38;5093060;28;20292;-96
2023/09/06 07:02:00;;;;;;;;;;;;;;;32.95;29.02;98993.84;5086301;28;19927;-88
2023/09/06 07:04:26;;;;;;;;;;;;;;;33.13;28.81;98993.88;5091515;28;19924;-88
2023/09/06 07:06:53;;;;;;;;;;;;;;;32.79;29.09;98997.00;5091812;28;19951;-89
2023/09/06 07:09:19;;;;;;;;;;;;;;;33.07;29.91;98998.59;5098063;28;19959;-89
2023/09/06 07:11:45;;;;;;;;;;;;;;;33.40;28.89;99004.44;5093487;28;20013;-88
2023/09/06 07:14:11;;;;;;;;;;;;;;;33.18;29.27;99003.84;5092850;28;20276;-89
2023/09/06 07:16:37;;;;;;;;;;;;;;;33.00;28.92;99001.72;5092844;28;19973;-89
2023/09/06 07:19:03;;;;;;;;;;;;;;;33.39;28.60;99006.53;5092979;28;19927;-89
2023/09/06 07:21:31;;;;;;;;;;;;;;;32.82;29.97;99004.56;5093893;28;19928;-88
2023/09/06 07:23:57;;;;;;;;;;;;;;;33.00;30.76;99009.50;5092932;28;20399;-89
2023/09/06 07:26:23;;;;;;;;;;;;;;;33.38;29.58;99002.06;5092716;28;20442;-88
2023/09/06 07:28:49;;;;;;;;;;;;;;;33.73;27.95;99004.56;5092581;28;20011;-89
2023/09/06 07:31:15;;;;;;;;;;;;;;;33.42;29.72;99002.69;5092773;28;19920;-88
2023/09/06 07:33:42;;;;;;;;;;;;;;;33.59;30.02;99008.88;5092906;28;19916;-88
2023/09/06 07:36:08;;;;;;;;;;;;;;;33.88;29.17;99014.03;5092515;28;19931;-89
2023/09/06 07:38:34;;;;;;;;;;;;;;;34.24;27.06;99011.06;5093153;28;19963;-89
2023/09/06 07:41:01;;;;;;;;;;;;;;;33.92;29.34;99004.06;5092253;28;19927;-88
2023/09/06 07:43:28;;;;;;;;;;;;;;;33.91;28.17;99016.72;5090647;28;19920;-88
2023/09/06 07:45:58;;;;;;;;;;;;;;;33.48;28.49;99010.59;5074681;28;19924;-89
2023/09/06 07:48:28;;;;;;;;;;;;;;;34.12;28.83;99022.69;5092583;28;19924;-89
2023/09/06 07:50:55;;;;;;;;;;;;;;;34.12;28.03;99012.09;5092873;28;20287;-88
2023/09/06 07:53:21;;;;;;;;;;;;;;;33.75;27.82;99016.31;5090827;28;20061;-89
2023/09/06 07:55:47;;;;;;;;;;;;;;;33.48;29.51;99011.41;5090913;28;19960;-89
2023/09/06 07:58:14;;;;;;;;;;;;;;;33.95;28.56;99003.09;5091218;28;19928;-88
2023/09/06 08:00:40;;;;;;;;;;;;;;;34.31;27.11;99005.03;5074219;28;19924;-88
2023/09/06 08:03:07;;;;;;;;;;;;;;;34.04;27.79;99008.00;5092093;28;19920;-88
2023/09/06 08:05:35;;;;;;;;;;;;;;;33.85;28.08;99006.44;5091946;28;19994;-88
2023/09/06 08:08:02;;;;;;;;;;;;;;;33.75;27.87;99010.59;5091289;28;19921;-89
2023/09/06 08:10:28;;;;;;;;;;;;;;;33.60;29.40;99009.66;5091933;28;19924;-88
2023/09/06 08:12:54;;;;;;;;;;;;;;;34.14;28.16;99003.06;5093473;28;19920;-88
2023/09/06 08:15:20;;;;;;;;;;;;;;;34.71;27.29;99011.16;5092517;28;19929;-88
2023/09/06 08:17:47;;;;;;;;;;;;;;;34.62;26.98;99016.13;5092841;28;19920;-89
2023/09/06 08:20:14;;;;;;;;;;;;;;;34.94;26.91;99008.81;5099357;28;19926;-88
2023/09/06 08:22:40;;;;;;;;;;;;;;;35.42;26.34;99007.47;5095383;28;20259;-88
2023/09/06 08:25:07;;;;;;;;;;;;;;;35.19;26.52;99006.25;5094429;28;19985;-88
2023/09/06 08:27:33;;;;;;;;;;;;;;;34.62;25.16;99002.66;5093245;28;19912;-88
2023/09/06 08:29:59;;;;;;;;;;;;;;;35.06;25.36;99000.00;5093557;28;20497;-89
2023/09/06 08:32:25;;;;;;;;;;;;;;;35.00;27.01;98998.28;5092254;28;20466;-87
2023/09/06 08:34:51;;;;;;;;;;;;;;;34.64;27.42;98996.47;5093040;28;20027;-87
2023/09/06 08:37:17;;;;;;;;;;;;;;;33.97;26.07;99005.47;5093073;28;19967;-87
2023/09/06 08:39:43;;;;;;;;;;;;;;;33.20;28.59;99007.78;5093675;28;19920;-87
2023/09/06 08:42:10;;;;;;;;;;;;;;;33.95;29.01;99000.25;5093180;28;19931;-87
2023/09/06 08:44:37;;;;;;;;;;;;;;;32.97;28.15;99011.25;5094101;28;19981;-87
2023/09/06 08:47:07;;;;;;;;;;;;;;;33.98;28.38;99007.06;5091107;28;19977;-87
2023/09/06 08:49:34;;;;;;;;;;;;;;;33.78;27.88;99009.63;5092365;28;19955;-87
2023/09/06 08:52:01;;;;;;;;;;;;;;;35.04;26.15;99008.28;5091158;28;19919;-87
2023/09/06 08:54:27;;;;;;;;;;;;;;;35.82;25.28;99009.78;5091246;28;19924;-87
2023/09/06 08:56:53;;;;;;;;;;;;;;;36.11;24.67;99009.78;5090352;28;19939;-87
2023/09/06 08:59:19;;;;;;;;;;;;;;;35.33;26.43;99007.56;5091860;28;19999;-87
2023/09/06 09:01:45;;;;;;;;;;;;;;;35.42;26.93;99002.56;5091798;28;20282;-86
2023/09/06 09:04:12;;;;;;;;;;;;;;;34.85;26.37;98998.22;5091278;28;19928;-87
2023/09/06 09:06:43;;;;;;;;;;;;;;;33.50;28.25;98997.47;5088694;28;19927;-87
2023/09/06 09:09:16;;;;;;;;;;;;;;;33.06;28.14;99005.56;5091109;28;19922;-91
2023/09/06 09:11:49;;;;;;;;;;;;;;;33.72;28.34;99003.00;5091085;28;20011;-91
2023/09/06 09:14:19;;;;;;;;;;;;;;;34.29;26.47;99004.72;5096967;28;19920;-90
2023/09/06 09:16:51;;;;;;;;;;;;;;;32.97;28.16;98999.06;5070516;28;19924;-91
2023/09/06 09:19:19;;;;;;;;;;;;;;;34.75;26.62;98999.59;5096207;28;19956;-89
2023/09/06 09:21:45;;;;;;;;;;;;;;;35.90;26.25;98997.47;5091335;28;19920;-89
2023/09/06 09:24:12;;;;;;;;;;;;;;;34.20;28.10;99001.91;5074625;28;19927;-88
2023/09/06 09:26:41;;;;;;;;;;;;;;;33.81;27.93;99002.97;5083091;28;20288;-90
2023/09/06 09:29:14;;;;;;;;;;;;;;;32.84;31.11;98995.59;5090203;28;19920;-89
2023/09/06 09:31:40;;;;;;;;;;;;;;;33.02;29.63;98999.25;5078715;28;19916;-89
2023/09/06 09:34:06;;;;;;;;;;;;;;;31.42;33.01;99000.44;5092574;28;19959;-87
2023/09/06 09:36:34;;;;;;;;;;;;;;;32.30;29.21;99001.91;5091696;28;19965;-87
2023/09/06 09:39:06;;;;;;;;;;;;;;;33.39;28.68;98997.97;5093645;28;19928;-87
2023/09/06 09:41:33;;;;;;;;;;;;;;;33.98;27.86;98998.50;5091197;28;19933;-87
2023/09/06 09:44:13;;;;;;;;;;;;;;;33.05;28.95;99003.22;5091201;28;19928;-87
2023/09/06 09:46:42;;;;;;;;;;;;;;;35.02;27.10;99004.31;5072251;28;19958;-87
2023/09/06 09:49:08;;;;;;;;;;;;;;;35.73;26.69;99004.94;5093725;28;19989;-87
2023/09/06 09:51:35;;;;;;;;;;;;;;;36.49;24.35;99006.00;5093457;28;20462;-86
2023/09/06 09:54:03;;;;;;;;;;;;;;;37.11;23.85;99003.47;5095680;28;19928;-86
2023/09/06 09:56:30;;;;;;;;;;;;;;;37.34;23.80;98998.81;5098687;28;19924;-86
2023/09/06 09:58:58;;;;;;;;;;;;;;;37.58;24.04;99012.88;5093736;28;20283;-86
2023/09/06 10:01:24;;;;;;;;;;;;;;;36.11;25.21;99006.91;5096192;28;19947;-86
2023/09/06 10:03:55;;;;;;;;;;;;;;;34.82;25.30;99004.13;5094361;28;19920;-87
2023/09/06 10:06:24;;;;;;;;;;;;;;;34.61;25.75;99006.78;5092372;28;19927;-87
2023/09/06 10:08:52;;;;;;;;;;;;;;;34.10;27.05;99011.75;5091497;28;20428;-87
2023/09/06 10:11:19;;;;;;;;;;;;;;;34.78;25.10;98994.94;5094099;28;19963;-87
2023/09/06 10:13:46;;;;;;;;;;;;;;;35.53;25.55;99001.19;5094626;28;19928;-86
2023/09/06 10:16:12;;;;;;;;;;;;;;;33.33;27.42;98997.03;5091898;28;19920;-83
2023/09/06 10:18:38;;;;;;;;;;;;;;;32.29;28.78;99001.09;5094139;28;19920;-86
2023/09/06 10:21:05;;;;;;;;;;;;;;;32.40;27.21;98997.81;5094218;28;19928;-86
2023/09/06 10:23:32;;;;;;;;;;;;;;;34.70;25.99;98992.47;5093879;28;20371;-86
2023/09/06 10:25:59;;;;;;;;;;;;;;;35.73;24.14;98992.75;5093673;28;19927;-86
2023/09/06 10:28:31;;;;;;;;;;;;;;;33.49;30.38;98990.22;5093657;28;19963;-86
2023/09/06 10:31:07;;;;;;;;;;;;;;;33.09;28.49;98990.41;5077001;28;19935;-86
2023/09/06 10:33:36;;;;;;;;;;;;;;;35.40;24.89;98984.31;5094616;28;19927;-86
2023/09/06 10:36:07;;;;;;;;;;;;;;;35.85;22.66;98992.44;5094709;28;20011;-86
2023/09/06 10:38:35;;;;;;;;;;;;;;;36.98;22.23;98979.34;5092530;28;20430;-86
2023/09/06 10:41:05;;;;;;;;;;;;;;;35.66;23.97;98991.03;5091290;28;19931;-86
2023/09/06 10:43:44;;;;;;;;;;;;;;;34.85;26.83;98986.81;5092878;28;19920;-86
2023/09/06 10:46:10;;;;;;;;;;;;;;;35.47;25.70;98991.72;5095889;28;19916;-86
2023/09/06 10:48:36;;;;;;;;;;;;;;;35.94;25.17;98994.41;5096029;28;20007;-86
2023/09/06 10:51:09;;;;;;;;;;;;;;;35.26;25.82;98990.81;5070636;28;20503;-86
2023/09/06 10:53:36;;;;;;;;;;;;;;;34.06;26.37;98985.50;5113878;28;19958;-86
2023/09/06 10:56:02;;;;;;;;;;;;;;;34.18;27.92;98989.41;5095892;28;19916;-86
2023/09/06 10:58:29;;;;;;;;;;;;;;;34.20;27.84;98984.00;5094898;28;20395;-86
2023/09/06 11:01:15;;;;;;;;;;;;;;;33.56;29.34;98986.28;5094432;28;20007;-86
2023/09/06 11:03:46;;;;;;;;;;;;;;;33.27;28.07;98981.06;5089604;28;19924;-86
2023/09/06 11:06:12;;;;;;;;;;;;;;;34.48;24.92;98979.75;5093180;28;20400;-86
2023/09/06 11:08:38;;;;;;;;;;;;;;;33.88;28.77;98985.53;5082104;28;19931;-86
2023/09/06 11:11:06;;;;;;;;;;;;;;;35.23;25.30;98980.34;5094145;28;19925;-86
2023/09/06 11:13:33;;;;;;;;;;;;;;;37.02;22.01;98969.25;5095050;28;19920;-86
2023/09/06 11:16:00;;;;;;;;;;;;;;;36.28;27.02;98970.81;5097385;28;19930;-86
2023/09/06 11:18:27;;;;;;;;;;;;;;;36.43;23.49;98965.03;5093584;28;19924;-86
2023/09/06 11:20:53;;;;;;;;;;;;;;;37.43;23.92;98966.34;5093864;28;20046;-86
2023/09/06 11:23:19;;;;;;;;;;;;;;;37.98;22.25;98964.00;5092908;28;20006;-86
2023/09/06 11:25:45;;;;;;;;;;;;;;;38.21;21.89;98965.00;5075087;28;19955;-86
2023/09/06 11:28:17;;;;;;;;;;;;;;;36.92;22.53;98967.84;5093169;28;20395;-85
2023/09/06 11:30:45;;;;;;;;;;;;;;;36.37;23.47;98964.16;5093016;28;20279;-84
2023/09/06 11:33:11;;;;;;;;;;;;;;;35.24;24.04;98965.56;5095517;28;20390;-84
2023/09/06 11:35:41;;;;;;;;;;;;;;;34.47;25.63;98958.97;5093616;28;19920;-85
2023/09/06 11:38:10;;;;;;;;;;;;;;;33.15;29.43;98962.88;5093802;28;19920;-83
2023/09/06 11:40:37;;;;;;;;;;;;;;;35.32;25.15;98963.13;5096010;28;19920;-86
2023/09/06 11:43:04;;;;;;;;;;;;;;;35.02;25.71;98964.34;5092507;28;20419;-85
2023/09/06 11:45:32;;;;;;;;;;;;;;;35.48;25.50;98967.56;5090423;28;20395;-86
2023/09/06 11:48:04;;;;;;;;;;;;;;;35.91;25.05;98967.59;5091023;28;19948;-86
2023/09/06 11:50:32;;;;;;;;;;;;;;;34.49;28.87;98962.16;5092187;28;20003;-85
2023/09/06 11:53:02;;;;;;;;;;;;;;;35.40;25.70;98964.31;5092710;28;19916;-85
2023/09/06 11:55:30;;;;;;;;;;;;;;;35.90;25.37;98965.22;5093778;28;19920;-84
2023/09/06 11:57:57;;;;;;;;;;;;;;;35.66;24.85;98962.47;5097910;28;19924;-86
2023/09/06 12:00:27;;;;;;;;;;;;;;;33.24;30.15;98964.91;5074056;28;19924;-85
2023/09/06 12:02:54;;;;;;;;;;;;;;;34.67;25.52;98964.13;5093678;28;19920;-86
2023/09/06 12:05:23;;;;;;;;;;;;;;;35.62;26.56;98956.16;5076626;28;19985;-85
2023/09/06 12:07:49;;;;;;;;;;;;;;;35.89;25.71;98964.44;5093088;28;19927;-85
2023/09/06 12:10:20;;;;;;;;;;;;;;;37.51;21.91;98953.94;5094309;28;19922;-85
2023/09/06 12:12:48;;;;;;;;;;;;;;;38.32;20.75;98956.47;5094426;28;19949;-85
2023/09/06 12:15:14;;;;;;;;;;;;;;;37.21;23.47;98956.19;5094296;28;19916;-86
2023/09/06 12:17:41;;;;;;;;;;;;;;;34.36;27.06;98953.03;5094262;28;19978;-85
2023/09/06 12:20:10;;;;;;;;;;;;;;;35.44;23.30;98959.19;5093870;28;19958;-86
2023/09/06 12:22:36;;;;;;;;;;;;;;;37.05;23.38;98951.06;5094343;28;19920;-85
2023/09/06 12:25:02;;;;;;;;;;;;;;;37.71;22.58;98948.13;5102005;28;20350;-86
2023/09/06 12:27:28;;;;;;;;;;;;;;;37.93;20.14;98947.53;5103752;28;19938;-86
2023/09/06 12:29:55;;;;;;;;;;;;;;;38.51;20.26;98951.91;5076029;28;19926;-86
2023/09/06 12:32:21;;;;;;;;;;;;;;;37.38;22.57;98940.00;5073821;28;19989;-87
2023/09/06 12:34:47;;;;;;;;;;;;;;;34.90;27.08;98953.94;5094348;28;19923;-87
2023/09/06 12:37:13;;;;;;;;;;;;;;;34.70;25.19;98948.91;5097748;28;19924;-87
2023/09/06 12:39:39;;;;;;;;;;;;;;;34.36;26.54;98944.47;5092269;28;20007;-86
2023/09/06 12:42:07;;;;;;;;;;;;;;;34.69;27.95;98945.25;5091218;28;19924;-86
2023/09/06 12:44:33;;;;;;;;;;;;;;;34.21;25.33;98929.38;5101919;28;19927;-87
2023/09/06 12:46:59;;;;;;;;;;;;;;;34.30;26.51;98940.72;5084656;28;20001;-86
2023/09/06 12:49:25;;;;;;;;;;;;;;;34.88;24.17;98940.19;5092030;28;19916;-86